createdAt,value
2022-10-15T00:01:22.560Z,97525.84
2022-10-15T00:03:49.755Z,97533.97
2022-10-15T00:06:21.176Z,97518.41
2022-10-15T00:08:48.733Z,97525.63
2022-10-15T00:11:22.555Z,97524.59
2022-10-15T00:13:50.556Z,97527.72
2022-10-15T00:16:21.838Z,97533.81
2022-10-15T00:18:49.848Z,97535.50
2022-10-15T00:21:19.966Z,97537.25
2022-10-15T00:23:48.283Z,97519.72
2022-10-15T00:26:25.533Z,97528.28
2022-10-15T00:28:55.605Z,97529.88
2022-10-15T00:31:27.082Z,97510.41
2022-10-15T00:33:57.621Z,97502.47
2022-10-15T00:36:34.659Z,97524.03
2022-10-15T00:39:03.531Z,97512.53
2022-10-15T00:41:42.901Z,97504.91
2022-10-15T00:44:22.503Z,97501.91
2022-10-15T00:47:04.026Z,97490.34
2022-10-15T00:49:34.522Z,97492.94
2022-10-15T00:52:10.889Z,97504.00
2022-10-15T00:54:43.229Z,97501.72
2022-10-15T00:57:11.383Z,97510.53
2022-10-15T00:59:44.939Z,97504.91
2022-10-15T01:02:15.899Z,97516.03
2022-10-15T01:04:42.943Z,97496.03
2022-10-15T01:07:09.977Z,97500.31
2022-10-15T01:09:39.972Z,97490.66
2022-10-15T01:12:37.651Z,97521.41
2022-10-15T01:15:31.742Z,97487.81
2022-10-15T01:18:23.507Z,97498.63
2022-10-15T01:21:01.416Z,97501.06
2022-10-15T01:24:11.067Z,97488.88
2022-10-15T01:27:02.874Z,97497.31
2022-10-15T01:30:13.534Z,97520.28
2022-10-15T01:33:07.343Z,97512.47
2022-10-15T01:36:00.164Z,97497.84
2022-10-15T01:38:57.543Z,97495.41
2022-10-15T01:41:45.271Z,97505.06
2022-10-15T01:44:20.927Z,97477.72
2022-10-15T01:47:23.219Z,97473.41
2022-10-15T01:49:54.560Z,97471.78
2022-10-15T01:54:59.807Z,97451.31
2022-10-15T01:57:29.822Z,97479.56
2022-10-15T01:59:57.746Z,97454.31
2022-10-15T02:02:25.504Z,97441.09
2022-10-15T02:04:52.788Z,97445.34
2022-10-15T02:07:55.412Z,97443.09
2022-10-15T02:10:54.856Z,97439.91
2022-10-15T02:13:50.078Z,97429.59
2022-10-15T02:16:59.521Z,97456.84
2022-10-15T02:19:44.980Z,97457.09
2022-10-15T02:22:22.401Z,97486.84
2022-10-15T02:25:05.605Z,97526.34
2022-10-15T02:27:34.199Z,97466.41
2022-10-15T02:30:06.972Z,97459.53
2022-10-15T02:32:40.374Z,97489.31
2022-10-15T02:35:10.145Z,97482.16
2022-10-15T02:37:45.598Z,97478.06
2022-10-15T02:40:13.014Z,97487.06
2022-10-15T02:42:40.443Z,97493.00
2022-10-15T02:45:09.248Z,97476.91
2022-10-15T02:47:36.299Z,97514.44
2022-10-15T02:50:04.854Z,97494.09
2022-10-15T02:52:31.873Z,97487.69
2022-10-15T02:54:59.954Z,97498.91
2022-10-15T02:57:27.334Z,97503.63
2022-10-15T02:59:54.451Z,97483.69
2022-10-15T03:02:21.493Z,97489.03
2022-10-15T03:04:48.531Z,97510.47
2022-10-15T03:07:15.729Z,97483.72
2022-10-15T03:09:43.042Z,97495.63
2022-10-15T03:12:10.022Z,97479.69
2022-10-15T03:14:37.441Z,97496.81
2022-10-15T03:17:04.934Z,97509.81
2022-10-15T03:19:31.961Z,97485.06
2022-10-15T03:21:59.053Z,97471.28
2022-10-15T03:24:32.729Z,97499.56
2022-10-15T03:26:59.973Z,97476.69
2022-10-15T03:29:26.997Z,97497.06
2022-10-15T03:32:00.277Z,97498.13
2022-10-15T03:34:27.391Z,97508.63
2022-10-15T03:36:54.945Z,97498.13
2022-10-15T03:39:22.057Z,97465.25
2022-10-15T03:41:53.950Z,97485.75
2022-10-15T03:44:26.495Z,97467.81
2022-10-15T03:47:04.675Z,97478.19
2022-10-15T03:49:41.556Z,97469.22
2022-10-15T03:52:08.624Z,97468.69
2022-10-15T03:54:35.954Z,97468.69
2022-10-15T03:57:03.129Z,97465.81
2022-10-15T03:59:35.426Z,97463.75
2022-10-15T04:02:03.700Z,97468.91
2022-10-15T04:04:32.623Z,97468.88
2022-10-15T04:07:00.188Z,97469.03
2022-10-15T04:09:28.556Z,97470.78
2022-10-15T04:12:16.626Z,97481.72
2022-10-15T04:14:43.924Z,97483.88
2022-10-15T04:17:11.513Z,97483.47
2022-10-15T04:19:39.087Z,97485.50
2022-10-15T04:22:06.555Z,97483.28
2022-10-15T04:24:42.069Z,97484.94
2022-10-15T04:27:12.840Z,97488.84
2022-10-15T04:29:39.904Z,97486.03
2022-10-15T04:32:15.298Z,97488.88
2022-10-15T04:34:43.281Z,97495.75
2022-10-15T04:37:10.557Z,97544.47
2022-10-15T04:39:38.117Z,97566.72
2022-10-15T04:42:05.409Z,97524.84
2022-10-15T04:44:34.129Z,97549.63
2022-10-15T04:47:02.425Z,97543.31
2022-10-15T04:49:49.630Z,97583.44
2022-10-15T04:52:30.413Z,97565.38
2022-10-15T04:55:04.785Z,97576.56
2022-10-15T04:57:32.386Z,97588.84
2022-10-15T04:59:59.388Z,97568.53
2022-10-15T05:02:49.263Z,97567.16
2022-10-15T05:05:21.987Z,97536.66
2022-10-15T05:08:04.421Z,97563.38
2022-10-15T05:10:38.371Z,97548.47
2022-10-15T05:13:07.907Z,97569.34
2022-10-15T05:15:37.727Z,97572.94
2022-10-15T05:18:07.826Z,97570.56
2022-10-15T05:20:44.208Z,97562.28
2022-10-15T05:23:15.765Z,97555.78
2022-10-15T05:25:53.135Z,97560.91
2022-10-15T05:28:23.956Z,97568.66
2022-10-15T05:30:51.046Z,97584.13
2022-10-15T05:33:18.446Z,97574.31
2022-10-15T05:35:45.481Z,97570.81
2022-10-15T05:38:12.532Z,97583.75
2022-10-15T05:40:40.408Z,97588.06
2022-10-15T05:43:14.135Z,97608.16
2022-10-15T05:45:41.339Z,97604.16
2022-10-15T05:48:08.382Z,97613.09
2022-10-15T05:50:36.205Z,97614.38
2022-10-15T05:53:06.827Z,97602.78
2022-10-15T05:55:47.562Z,97604.16
2022-10-15T05:58:14.566Z,97604.66
2022-10-15T06:00:41.547Z,97588.06
2022-10-15T06:03:14.170Z,97624.06
2022-10-15T06:05:41.156Z,97607.44
2022-10-15T06:08:08.243Z,97642.50
2022-10-15T06:10:38.311Z,97636.47
2022-10-15T06:13:06.108Z,97636.19
2022-10-15T06:15:33.806Z,97636.44
2022-10-15T06:18:01.942Z,97629.66
2022-10-15T06:20:29.044Z,97628.16
2022-10-15T06:23:00.579Z,97637.38
2022-10-15T06:25:28.329Z,97641.19
2022-10-15T06:27:55.341Z,97621.13
2022-10-15T06:30:25.464Z,97641.94
2022-10-15T06:32:53.670Z,97653.81
2022-10-15T06:35:23.022Z,97653.97
2022-10-15T06:37:50.208Z,97685.81
2022-10-15T06:40:17.815Z,97663.06
2022-10-15T06:42:45.538Z,97691.44
2022-10-15T06:45:14.888Z,97706.50
2022-10-15T06:47:44.035Z,97697.19
2022-10-15T06:50:12.189Z,97679.72
2022-10-15T06:52:39.526Z,97696.28
2022-10-15T06:55:07.142Z,97695.75
2022-10-15T06:57:34.114Z,97708.16
2022-10-15T07:00:01.083Z,97711.16
2022-10-15T07:02:28.081Z,97713.44
2022-10-15T07:04:55.717Z,97712.50
2022-10-15T07:07:23.542Z,97708.00
2022-10-15T07:09:53.513Z,97701.31
2022-10-15T07:12:22.622Z,97734.25
2022-10-15T07:14:49.889Z,97738.88
2022-10-15T07:17:17.360Z,97747.41
2022-10-15T07:19:44.334Z,97739.00
2022-10-15T07:22:11.485Z,97758.75
2022-10-15T07:24:38.452Z,97739.84
2022-10-15T07:27:08.222Z,97735.88
2022-10-15T07:29:45.329Z,97741.53
2022-10-15T07:32:12.384Z,97756.22
2022-10-15T07:34:39.424Z,97759.47
2022-10-15T07:37:06.445Z,97757.19
2022-10-15T07:39:35.542Z,97761.28
2022-10-15T07:42:06.061Z,97750.44
2022-10-15T07:44:33.122Z,97757.03
2022-10-15T07:47:00.078Z,97764.59
2022-10-15T07:49:27.037Z,97764.44
2022-10-15T07:51:54.085Z,97766.59
2022-10-15T07:54:21.493Z,97752.28
2022-10-15T07:56:48.425Z,97767.59
2022-10-15T07:59:15.406Z,97781.06
2022-10-15T08:01:44.167Z,97785.00
2022-10-15T08:04:14.035Z,97779.09
2022-10-15T08:06:43.371Z,97778.06
2022-10-15T08:09:10.394Z,97800.78
2022-10-15T08:11:37.514Z,97799.72
2022-10-15T08:14:05.768Z,97788.75
2022-10-15T08:16:32.801Z,97786.41
2022-10-15T08:19:00.830Z,97785.75
2022-10-15T08:21:27.920Z,97805.25
2022-10-15T08:23:54.938Z,97799.25
2022-10-15T08:26:33.861Z,97797.72
2022-10-15T08:29:01.501Z,97790.94
2022-10-15T08:31:28.591Z,97805.38
2022-10-15T08:33:55.622Z,97801.66
2022-10-15T08:36:22.602Z,97803.19
2022-10-15T08:38:50.771Z,97794.28
2022-10-15T08:41:26.299Z,97803.00
2022-10-15T08:43:53.507Z,97798.44
2022-10-15T08:46:36.944Z,97793.31
2022-10-15T08:49:04.899Z,97810.25
2022-10-15T08:51:49.725Z,97822.81
2022-10-15T08:54:19.489Z,97823.56
2022-10-15T08:56:54.387Z,97816.41
2022-10-15T08:59:49.969Z,97822.78
2022-10-15T09:02:34.320Z,97786.94
2022-10-15T09:05:22.803Z,97808.03
2022-10-15T09:08:02.891Z,97809.41
2022-10-15T09:10:33.783Z,97792.56
2022-10-15T09:13:11.413Z,97796.81
2022-10-15T09:15:51.257Z,97806.38
2022-10-15T09:18:24.046Z,97782.91
2022-10-15T09:20:51.228Z,97802.19
2022-10-15T09:23:25.883Z,97787.88
2022-10-15T09:25:59.226Z,97796.16
2022-10-15T09:28:44.880Z,97787.31
2022-10-15T09:31:17.096Z,97805.31
2022-10-15T09:33:55.101Z,97785.69
2022-10-15T09:36:46.584Z,97803.47
2022-10-15T09:39:25.758Z,97802.41
2022-10-15T09:42:36.344Z,97789.16
2022-10-15T09:45:15.764Z,97792.53
2022-10-15T09:47:44.285Z,97796.91
2022-10-15T09:50:14.302Z,97787.81
2022-10-15T09:53:20.595Z,97815.88
2022-10-15T09:56:10.457Z,97810.69
2022-10-15T09:58:59.215Z,97814.00
2022-10-15T10:01:29.913Z,97822.78
2022-10-15T10:04:12.769Z,97813.19
2022-10-15T10:06:50.130Z,97816.09
2022-10-15T10:09:23.859Z,97814.78
2022-10-15T10:12:00.963Z,97832.84
2022-10-15T10:14:43.117Z,97824.50
2022-10-15T10:17:21.367Z,97813.44
2022-10-15T10:20:10.182Z,97852.31
2022-10-15T10:23:01.985Z,97840.44
2022-10-15T10:25:42.626Z,97857.91
2022-10-15T10:28:09.788Z,97865.44
2022-10-15T10:30:48.448Z,97832.25
2022-10-15T10:33:26.242Z,97848.88
2022-10-15T10:35:53.551Z,97851.34
2022-10-15T10:38:27.746Z,97840.34
2022-10-15T10:41:09.724Z,97856.19
2022-10-15T10:43:41.252Z,97817.75
2022-10-15T10:46:14.860Z,97853.53
2022-10-15T10:48:52.002Z,97839.84
2022-10-15T10:51:23.254Z,97827.19
2022-10-15T10:54:05.835Z,97859.78
2022-10-15T10:56:40.581Z,97850.00
2022-10-15T10:59:15.558Z,97859.13
2022-10-15T11:01:43.460Z,97864.28
2022-10-15T11:04:23.247Z,97834.19
2022-10-15T11:07:27.048Z,97858.97
2022-10-15T11:10:22.718Z,97841.13
2022-10-15T11:13:41.277Z,97831.50
2022-10-15T11:16:45.195Z,97865.69
2022-10-15T11:20:20.051Z,97849.53
2022-10-15T11:22:37.220Z,97862.50
2022-10-15T11:25:38.824Z,97853.78
2022-10-15T11:28:43.148Z,97858.69
2022-10-15T11:31:24.984Z,97843.63
2022-10-15T11:34:22.231Z,97831.47
2022-10-15T11:37:34.284Z,97835.53
2022-10-15T11:40:25.206Z,97846.97
2022-10-15T11:42:57.644Z,97841.19
2022-10-15T11:45:39.632Z,97818.25
2022-10-15T11:48:38.808Z,97825.31
2022-10-15T11:51:30.727Z,97831.44
2022-10-15T11:54:36.849Z,97818.53
2022-10-15T11:57:12.545Z,97806.34
2022-10-15T11:59:54.522Z,97805.50
2022-10-15T12:02:41.229Z,97799.78
2022-10-15T12:05:13.940Z,97792.72
2022-10-15T12:07:43.836Z,97799.56
2022-10-15T12:10:21.099Z,97808.28
2022-10-15T12:13:04.129Z,97795.28
2022-10-15T12:15:53.276Z,97791.56
2022-10-15T12:18:38.494Z,97773.00
2022-10-15T12:21:31.154Z,97797.28
2022-10-15T12:23:58.132Z,97788.94
2022-10-15T12:26:25.026Z,97792.38
2022-10-15T12:28:58.322Z,97803.44
2022-10-15T12:31:59.242Z,97794.72
2022-10-15T12:34:36.879Z,97802.00
2022-10-15T12:37:18.697Z,97789.69
2022-10-15T12:39:52.573Z,97795.06
2022-10-15T12:42:31.946Z,97781.63
2022-10-15T12:45:03.949Z,97801.06
2022-10-15T12:47:56.028Z,97784.63
2022-10-15T12:50:25.336Z,97806.97
2022-10-15T12:53:03.399Z,97803.47
2022-10-15T12:55:40.415Z,97797.72
2022-10-15T12:59:02.659Z,97783.22
2022-10-15T13:01:46.516Z,97782.44
2022-10-15T13:04:13.493Z,97787.75
2022-10-15T13:06:41.171Z,97743.66
2022-10-15T13:09:11.392Z,97775.91
2022-10-15T13:14:42.994Z,97781.69
2022-10-15T13:17:20.073Z,97786.34
2022-10-15T13:20:04.761Z,97773.78
2022-10-15T13:22:34.350Z,97792.41
2022-10-15T13:25:02.420Z,97778.63
2022-10-15T13:27:34.858Z,97772.69
2022-10-15T13:30:09.416Z,97788.19
2022-10-15T13:32:52.873Z,97794.53
2022-10-15T13:35:26.310Z,97806.44
2022-10-15T13:37:53.354Z,97788.38
2022-10-15T13:40:26.157Z,97796.97
2022-10-15T13:43:02.116Z,97788.91
2022-10-15T13:45:29.562Z,97772.13
2022-10-15T13:47:57.071Z,97788.13
2022-10-15T13:50:36.288Z,97786.66
2022-10-15T13:53:24.233Z,97798.59
2022-10-15T13:55:54.974Z,97785.09
2022-10-15T13:58:36.639Z,97791.91
2022-10-15T14:01:08.873Z,97797.00
2022-10-15T14:03:39.263Z,97792.66
2022-10-15T14:06:26.125Z,97791.56
2022-10-15T14:09:20.311Z,97797.50
2022-10-15T14:11:47.408Z,97792.13
2022-10-15T14:14:41.517Z,97798.06
2022-10-15T14:17:24.336Z,97796.97
2022-10-15T14:20:25.777Z,97805.31
2022-10-15T14:22:50.190Z,97786.72
2022-10-15T14:25:23.999Z,97798.81
2022-10-15T14:27:51.321Z,97795.81
2022-10-15T14:30:44.161Z,97793.00
2022-10-15T14:33:31.938Z,97791.50
2022-10-15T14:36:24.358Z,97801.53
2022-10-15T14:38:53.691Z,97804.25
2022-10-15T14:41:29.121Z,97805.88
2022-10-15T14:44:11.310Z,97806.13
2022-10-15T14:46:47.564Z,97829.22
2022-10-15T14:49:34.933Z,97796.47
2022-10-15T14:52:07.019Z,97783.00
2022-10-15T14:54:42.796Z,97806.16
2022-10-15T14:57:29.202Z,97804.00
2022-10-15T14:59:57.658Z,97801.06
2022-10-15T15:02:27.695Z,97823.84
2022-10-15T15:05:13.258Z,97820.31
2022-10-15T15:07:40.909Z,97785.16
2022-10-15T15:10:09.350Z,97781.91
2022-10-15T15:12:38.533Z,97777.03
2022-10-15T15:15:17.504Z,97787.81
2022-10-15T15:17:45.041Z,97769.50
2022-10-15T15:20:12.951Z,97791.63
2022-10-15T15:22:42.075Z,97780.28
2022-10-15T15:25:25.087Z,97779.69
2022-10-15T15:27:52.220Z,97772.66
2022-10-15T15:30:30.377Z,97757.59
2022-10-15T15:32:58.023Z,97787.59
2022-10-15T15:35:33.953Z,97774.88
2022-10-15T15:38:01.016Z,97793.78
2022-10-15T15:40:28.027Z,97812.56
2022-10-15T15:42:56.540Z,97809.97
2022-10-15T15:45:26.179Z,97806.13
2022-10-15T15:47:53.997Z,97782.47
2022-10-15T15:50:21.855Z,97799.41
2022-10-15T15:52:49.088Z,97804.50
2022-10-15T15:55:16.773Z,97797.03
2022-10-15T15:57:45.412Z,97801.84
2022-10-15T16:00:13.888Z,97807.25
2022-10-15T16:02:41.174Z,97805.09
2022-10-15T16:05:11.120Z,97805.09
2022-10-15T16:07:38.308Z,97811.56
2022-10-15T16:10:09.231Z,97803.47
2022-10-15T16:12:36.757Z,97812.59
2022-10-15T16:15:05.078Z,97790.75
2022-10-15T16:17:33.293Z,97787.75
2022-10-15T16:20:00.393Z,97799.41
2022-10-15T16:22:27.358Z,97810.47
2022-10-15T16:24:55.338Z,97832.22
2022-10-15T16:27:23.115Z,97832.59
2022-10-15T16:29:50.376Z,97833.84
2022-10-15T16:32:17.371Z,97824.78
2022-10-15T16:34:44.391Z,97821.25
2022-10-15T16:37:11.356Z,97820.72
2022-10-15T16:39:38.813Z,97837.16
2022-10-15T16:42:05.984Z,97825.28
2022-10-15T16:44:32.957Z,97823.41
2022-10-15T16:46:59.971Z,97844.44
2022-10-15T16:49:27.516Z,97832.59
2022-10-15T16:51:55.023Z,97820.72
2022-10-15T16:54:22.088Z,97838.25
2022-10-15T16:56:52.789Z,97849.84
2022-10-15T16:59:20.575Z,97861.25
2022-10-15T17:01:47.577Z,97866.88
2022-10-15T17:04:14.625Z,97861.00
2022-10-15T17:06:41.610Z,97866.56
2022-10-15T17:09:09.035Z,97871.13
2022-10-15T17:11:40.333Z,97888.66
2022-10-15T17:14:10.893Z,97864.22
2022-10-15T17:16:47.753Z,97884.91
2022-10-15T17:19:18.426Z,97883.34
2022-10-15T17:21:47.107Z,97894.88
2022-10-15T17:24:16.826Z,97899.91
2022-10-15T17:26:46.026Z,97907.44
2022-10-15T17:29:20.589Z,97890.97
2022-10-15T17:31:49.195Z,97905.03
2022-10-15T17:34:17.260Z,97902.72
2022-10-15T17:36:48.186Z,97913.47
2022-10-15T17:39:19.246Z,97924.44
2022-10-15T17:41:46.445Z,97921.63
2022-10-15T17:44:13.625Z,97911.47
2022-10-15T17:46:41.260Z,97918.78
2022-10-15T17:49:11.919Z,97923.56
2022-10-15T17:51:39.629Z,97919.66
2022-10-15T17:54:06.788Z,97913.88
2022-10-15T17:56:36.188Z,97921.53
2022-10-15T17:59:06.357Z,97938.63
2022-10-15T18:01:57.312Z,97923.00
2022-10-15T18:04:26.495Z,97922.50
2022-10-15T18:06:53.754Z,97928.63
2022-10-15T18:09:28.070Z,97916.44
2022-10-15T18:11:57.214Z,97914.94
2022-10-15T18:14:29.290Z,97909.25
2022-10-15T18:16:57.070Z,97922.53
2022-10-15T18:19:26.412Z,97927.41
2022-10-15T18:21:53.864Z,97919.91
2022-10-15T18:24:23.297Z,97936.94
2022-10-15T18:26:51.571Z,97948.00
2022-10-15T18:29:19.174Z,97937.72
2022-10-15T18:31:53.411Z,97939.78
2022-10-15T18:34:23.418Z,97946.78
2022-10-15T18:36:50.529Z,97917.53
2022-10-15T18:39:17.595Z,97924.66
2022-10-15T18:44:17.904Z,97916.56
2022-10-15T18:46:45.662Z,97921.19
2022-10-15T18:49:15.481Z,97933.91
2022-10-15T18:51:43.361Z,97943.72
2022-10-15T18:54:10.855Z,97937.56
2022-10-15T18:56:38.597Z,97944.78
2022-10-15T18:59:05.572Z,97925.81
2022-10-15T19:01:39.197Z,97923.09
2022-10-15T19:04:16.568Z,97941.72
2022-10-15T19:06:47.078Z,97933.69
2022-10-15T19:09:17.868Z,97940.03
2022-10-15T19:11:48.342Z,97943.50
2022-10-15T19:14:15.826Z,97946.72
2022-10-15T19:16:45.113Z,97954.19
2022-10-15T19:19:16.231Z,97966.16
2022-10-15T19:21:44.480Z,97961.69
2022-10-15T19:24:12.712Z,97955.78
2022-10-15T19:26:39.864Z,97966.00
2022-10-15T19:29:07.053Z,97965.34
2022-10-15T19:31:38.799Z,97956.84
2022-10-15T19:34:06.027Z,97958.75
2022-10-15T19:36:37.644Z,97955.72
2022-10-15T19:39:14.025Z,97966.28
2022-10-15T19:41:42.942Z,97962.50
2022-10-15T19:44:13.465Z,97956.00
2022-10-15T19:46:40.831Z,97968.66
2022-10-15T19:49:10.048Z,97974.03
2022-10-15T19:51:37.070Z,97967.31
2022-10-15T19:54:04.221Z,97977.66
2022-10-15T19:56:31.877Z,97978.34
2022-10-15T19:59:03.745Z,97964.13
2022-10-15T20:01:30.763Z,97975.88
2022-10-15T20:04:03.206Z,97966.34
2022-10-15T20:06:33.699Z,97966.66
2022-10-15T20:09:02.229Z,97962.47
2022-10-15T20:11:29.482Z,97970.19
2022-10-15T20:13:58.048Z,97969.38
2022-10-15T20:16:26.379Z,97979.84
2022-10-15T20:18:56.625Z,97989.66
2022-10-15T20:21:23.750Z,97988.38
2022-10-15T20:23:50.986Z,97975.81
2022-10-15T20:26:18.063Z,97988.84
2022-10-15T20:28:46.455Z,97982.72
2022-10-15T20:31:20.351Z,97984.47
2022-10-15T20:33:49.066Z,97985.31
2022-10-15T20:36:22.564Z,98000.88
2022-10-15T20:38:51.610Z,98017.56
2022-10-15T20:41:19.672Z,98015.66
2022-10-15T20:43:47.274Z,98020.91
2022-10-15T20:46:30.414Z,98029.91
2022-10-15T20:52:53.903Z,98020.28
2022-10-15T20:55:21.188Z,98029.94
2022-10-15T20:57:48.582Z,98045.50
2022-10-15T21:00:18.559Z,98034.41
2022-10-15T21:02:47.864Z,98038.38
2022-10-15T21:05:15.092Z,98046.22
2022-10-15T21:07:42.135Z,98044.13
2022-10-15T21:10:09.478Z,98032.09
2022-10-15T21:12:36.524Z,98041.50
2022-10-15T21:15:03.978Z,98055.25
2022-10-15T21:17:30.937Z,98049.44
2022-10-15T21:19:57.943Z,98041.50
2022-10-15T21:22:25.005Z,98054.69
2022-10-15T21:24:52.173Z,98053.44
2022-10-15T21:27:19.620Z,98050.75
2022-10-15T21:29:46.632Z,98061.75
2022-10-15T21:32:13.610Z,98066.09
2022-10-15T21:37:07.933Z,98064.44
2022-10-15T21:39:34.897Z,98066.91
2022-10-15T21:42:01.937Z,98071.06
2022-10-15T21:44:28.925Z,98057.44
2022-10-15T21:46:56.066Z,98055.13
2022-10-15T21:49:23.309Z,98050.84
2022-10-15T21:51:50.292Z,98049.06
2022-10-15T21:54:17.347Z,98046.31
2022-10-15T21:56:44.300Z,98042.53
2022-10-15T21:59:11.336Z,98046.59
2022-10-15T22:01:41.251Z,98050.03
2022-10-15T22:04:10.641Z,98057.38
2022-10-15T22:06:42.510Z,98073.09
2022-10-15T22:09:10.162Z,98073.56
2022-10-15T22:11:41.222Z,98061.50
2022-10-15T22:14:12.451Z,98066.22
2022-10-15T22:16:41.450Z,98062.88
2022-10-15T22:19:10.764Z,98066.66
2022-10-15T22:21:39.160Z,98060.84
2022-10-15T22:24:13.669Z,98063.97
2022-10-15T22:26:44.469Z,98059.34
2022-10-15T22:29:31.694Z,98070.09
2022-10-15T22:32:02.621Z,98056.84
2022-10-15T22:34:29.676Z,98039.13
2022-10-15T22:36:56.799Z,98063.53
2022-10-15T22:39:24.018Z,98052.78
2022-10-15T22:41:51.015Z,98039.84
2022-10-15T22:44:20.735Z,98036.84
2022-10-15T22:46:51.448Z,98046.75
2022-10-15T22:49:21.683Z,98064.28
2022-10-15T22:51:50.646Z,98068.41
2022-10-15T22:54:20.842Z,98080.09
2022-10-15T22:56:49.543Z,98072.69
2022-10-15T22:59:16.841Z,98073.22
2022-10-15T23:01:45.484Z,98072.94
2022-10-15T23:04:14.555Z,98089.28
2022-10-15T23:06:41.596Z,98085.06
2022-10-15T23:09:09.260Z,98092.28
2022-10-15T23:11:39.591Z,98075.91
2022-10-15T23:14:15.708Z,98076.78
2022-10-15T23:16:46.507Z,98078.47
2022-10-15T23:19:20.068Z,98094.75
2022-10-15T23:22:02.591Z,98087.78
2022-10-15T23:24:29.631Z,98081.38
2022-10-15T23:26:56.628Z,98068.84
2022-10-15T23:29:26.258Z,98063.78
2022-10-15T23:31:54.561Z,98069.50
2022-10-15T23:34:26.659Z,98058.28
2022-10-15T23:36:53.837Z,98067.25
2022-10-15T23:39:24.830Z,98060.03
2022-10-15T23:41:52.027Z,98071.69
2022-10-15T23:44:19.611Z,98078.97
2022-10-15T23:46:46.730Z,98073.91
2022-10-15T23:49:14.049Z,98070.25
2022-10-15T23:51:41.444Z,98079.53
2022-10-15T23:54:18.228Z,98076.31
2022-10-15T23:56:46.793Z,98073.50
2022-10-15T23:59:13.949Z,98080.84
